sensor_id;sensor_type;location;lat;lon;timestamp;P1;durP1;ratioP1;P2;durP2;ratioP2
21769;SDS011;11046;49.558;8.674;2024-02-23T00:02:21;2.10;;;0.60;;
21769;SDS011;11046;49.558;8.674;2024-02-23T00:05:22;1.73;;;0.60;;
21769;SDS011;11046;49.558;8.674;2024-02-23T00:08:22;1.37;;;0.60;;
21769;SDS011;11046;49.558;8.674;2024-02-23T00:11:23;2.27;;;0.50;;
21769;SDS011;11046;49.558;8.674;2024-02-23T00:14:24;2.93;;;0.80;;
21769;SDS011;11046;49.558;8.674;2024-02-23T00:17:24;1.63;;;0.50;;
21769;SDS011;11046;49.558;8.674;2024-02-23T00:20:25;0.80;;;0.60;;
21769;SDS011;11046;49.558;8.674;2024-02-23T00:23:25;1.53;;;0.60;;
21769;SDS011;11046;49.558;8.674;2024-02-23T00:26:26;0.80;;;0.50;;
21769;SDS011;11046;49.558;8.674;2024-02-23T00:29:29;3.27;;;0.83;;
21769;SDS011;11046;49.558;8.674;2024-02-23T00:32:29;2.50;;;0.80;;
21769;SDS011;11046;49.558;8.674;2024-02-23T00:35:30;3.47;;;0.70;;
21769;SDS011;11046;49.558;8.674;2024-02-23T00:38:30;1.77;;;0.60;;
21769;SDS011;11046;49.558;8.674;2024-02-23T00:41:31;4.13;;;0.60;;
21769;SDS011;11046;49.558;8.674;2024-02-23T00:44:32;0.77;;;0.53;;
21769;SDS011;11046;49.558;8.674;2024-02-23T00:47:32;3.23;;;0.60;;
21769;SDS011;11046;49.558;8.674;2024-02-23T00:50:35;0.63;;;0.50;;
21769;SDS011;11046;49.558;8.674;2024-02-23T00:53:35;4.40;;;0.83;;
21769;SDS011;11046;49.558;8.674;2024-02-23T00:56:36;1.57;;;0.47;;
21769;SDS011;11046;49.558;8.674;2024-02-23T00:59:37;6.67;;;1.03;;
21769;SDS011;11046;49.558;8.674;2024-02-23T01:02:37;1.50;;;0.60;;
21769;SDS011;11046;49.558;8.674;2024-02-23T01:05:38;4.10;;;0.80;;
21769;SDS011;11046;49.558;8.674;2024-02-23T01:08:39;3.27;;;0.70;;
21769;SDS011;11046;49.558;8.674;2024-02-23T01:11:40;2.63;;;0.80;;
21769;SDS011;11046;49.558;8.674;2024-02-23T01:14:40;2.63;;;0.70;;
21769;SDS011;11046;49.558;8.674;2024-02-23T01:17:41;8.30;;;0.87;;
21769;SDS011;11046;49.558;8.674;2024-02-23T01:20:42;2.07;;;0.80;;
21769;SDS011;11046;49.558;8.674;2024-02-23T01:23:42;3.27;;;0.70;;
21769;SDS011;11046;49.558;8.674;2024-02-23T01:26:43;6.27;;;0.87;;
21769;SDS011;11046;49.558;8.674;2024-02-23T01:29:44;1.97;;;0.73;;
21769;SDS011;11046;49.558;8.674;2024-02-23T01:32:45;6.10;;;0.97;;
21769;SDS011;11046;49.558;8.674;2024-02-23T01:35:46;3.77;;;0.87;;
21769;SDS011;11046;49.558;8.674;2024-02-23T01:38:47;5.67;;;1.00;;
21769;SDS011;11046;49.558;8.674;2024-02-23T01:41:47;4.40;;;0.80;;
21769;SDS011;11046;49.558;8.674;2024-02-23T01:44:48;3.00;;;1.00;;
21769;SDS011;11046;49.558;8.674;2024-02-23T01:47:49;6.73;;;1.00;;
21769;SDS011;11046;49.558;8.674;2024-02-23T01:50:49;3.30;;;0.90;;
21769;SDS011;11046;49.558;8.674;2024-02-23T01:53:51;4.37;;;1.43;;
21769;SDS011;11046;49.558;8.674;2024-02-23T01:56:51;7.70;;;0.87;;
21769;SDS011;11046;49.558;8.674;2024-02-23T01:59:53;2.40;;;0.70;;
21769;SDS011;11046;49.558;8.674;2024-02-23T02:02:54;4.00;;;1.10;;
21769;SDS011;11046;49.558;8.674;2024-02-23T02:05:56;4.23;;;1.10;;
21769;SDS011;11046;49.558;8.674;2024-02-23T02:09:00;0.80;;;0.50;;
21769;SDS011;11046;49.558;8.674;2024-02-23T02:12:02;3.00;;;0.50;;
21769;SDS011;11046;49.558;8.674;2024-02-23T02:15:03;0.33;;;0.33;;
21769;SDS011;11046;49.558;8.674;2024-02-23T02:18:04;2.93;;;0.50;;
21769;SDS011;11046;49.558;8.674;2024-02-23T02:21:05;1.67;;;0.63;;
21769;SDS011;11046;49.558;8.674;2024-02-23T02:24:06;1.40;;;0.60;;
21769;SDS011;11046;49.558;8.674;2024-02-23T02:27:06;0.50;;;0.50;;
21769;SDS011;11046;49.558;8.674;2024-02-23T02:30:07;2.20;;;0.77;;
21769;SDS011;11046;49.558;8.674;2024-02-23T02:33:08;0.63;;;0.50;;
21769;SDS011;11046;49.558;8.674;2024-02-23T02:36:09;2.20;;;0.50;;
21769;SDS011;11046;49.558;8.674;2024-02-23T02:39:11;2.73;;;0.57;;
21769;SDS011;11046;49.558;8.674;2024-02-23T02:45:28;1.07;;;0.50;;
21769;SDS011;11046;49.558;8.674;2024-02-23T02:48:29;1.13;;;0.57;;
21769;SDS011;11046;49.558;8.674;2024-02-23T02:51:29;2.47;;;0.53;;
21769;SDS011;11046;49.558;8.674;2024-02-23T02:54:30;1.90;;;0.50;;
21769;SDS011;11046;49.558;8.674;2024-02-23T02:57:30;1.23;;;0.43;;
21769;SDS011;11046;49.558;8.674;2024-02-23T03:00:31;1.27;;;0.50;;
21769;SDS011;11046;49.558;8.674;2024-02-23T03:03:32;0.73;;;0.50;;
21769;SDS011;11046;49.558;8.674;2024-02-23T03:06:32;3.60;;;0.60;;
21769;SDS011;11046;49.558;8.674;2024-02-23T03:09:33;4.43;;;0.60;;
21769;SDS011;11046;49.558;8.674;2024-02-23T03:12:33;2.57;;;0.80;;
21769;SDS011;11046;49.558;8.674;2024-02-23T03:15:34;2.60;;;0.70;;
21769;SDS011;11046;49.558;8.674;2024-02-23T03:18:35;2.93;;;0.80;;
21769;SDS011;11046;49.558;8.674;2024-02-23T03:21:35;2.10;;;0.77;;
21769;SDS011;11046;49.558;8.674;2024-02-23T03:24:36;2.60;;;0.67;;
21769;SDS011;11046;49.558;8.674;2024-02-23T03:27:37;1.77;;;0.70;;
21769;SDS011;11046;49.558;8.674;2024-02-23T03:30:38;4.17;;;0.70;;
21769;SDS011;11046;49.558;8.674;2024-02-23T03:33:39;0.80;;;0.50;;
21769;SDS011;11046;49.558;8.674;2024-02-23T03:36:40;3.40;;;0.70;;
21769;SDS011;11046;49.558;8.674;2024-02-23T03:39:40;2.43;;;0.80;;
21769;SDS011;11046;49.558;8.674;2024-02-23T03:42:41;1.20;;;0.60;;
21769;SDS011;11046;49.558;8.674;2024-02-23T03:45:41;3.93;;;0.80;;
21769;SDS011;11046;49.558;8.674;2024-02-23T03:48:42;7.17;;;0.87;;
21769;SDS011;11046;49.558;8.674;2024-02-23T03:51:43;3.90;;;1.17;;
21769;SDS011;11046;49.558;8.674;2024-02-23T03:54:44;4.43;;;0.90;;
21769;SDS011;11046;49.558;8.674;2024-02-23T03:57:44;6.57;;;0.97;;
21769;SDS011;11046;49.558;8.674;2024-02-23T04:00:45;3.40;;;0.80;;
21769;SDS011;11046;49.558;8.674;2024-02-23T04:03:45;1.53;;;0.60;;
21769;SDS011;11046;49.558;8.674;2024-02-23T04:06:46;3.00;;;0.77;;
21769;SDS011;11046;49.558;8.674;2024-02-23T04:09:47;2.50;;;0.63;;
21769;SDS011;11046;49.558;8.674;2024-02-23T04:12:52;5.23;;;0.70;;
21769;SDS011;11046;49.558;8.674;2024-02-23T04:15:53;4.30;;;0.80;;
21769;SDS011;11046;49.558;8.674;2024-02-23T04:18:53;4.33;;;0.87;;
21769;SDS011;11046;49.558;8.674;2024-02-23T04:21:56;1.90;;;0.87;;
21769;SDS011;11046;49.558;8.674;2024-02-23T04:24:56;3.67;;;1.00;;
21769;SDS011;11046;49.558;8.674;2024-02-23T04:27:57;4.63;;;0.70;;
21769;SDS011;11046;49.558;8.674;2024-02-23T04:30:58;4.50;;;0.70;;
21769;SDS011;11046;49.558;8.674;2024-02-23T04:33:58;2.53;;;0.73;;
21769;SDS011;11046;49.558;8.674;2024-02-23T04:36:59;2.93;;;0.80;;
21769;SDS011;11046;49.558;8.674;2024-02-23T04:39:59;4.90;;;1.10;;
21769;SDS011;11046;49.558;8.674;2024-02-23T04:43:00;4.73;;;1.33;;
21769;SDS011;11046;49.558;8.674;2024-02-23T04:46:01;7.37;;;1.00;;
21769;SDS011;11046;49.558;8.674;2024-02-23T04:49:01;2.93;;;0.70;;
21769;SDS011;11046;49.558;8.674;2024-02-23T04:52:02;2.93;;;0.80;;
21769;SDS011;11046;49.558;8.674;2024-02-23T04:55:05;2.43;;;0.90;;
21769;SDS011;11046;49.558;8.674;2024-02-23T04:58:05;2.23;;;0.73;;
21769;SDS011;11046;49.558;8.674;2024-02-23T05:01:06;2.73;;;0.90;;
21769;SDS011;11046;49.558;8.674;2024-02-23T05:04:07;7.23;;;1.00;;
21769;SDS011;11046;49.558;8.674;2024-02-23T05:07:07;2.27;;;0.90;;
21769;SDS011;11046;49.558;8.674;2024-02-23T05:10:08;1.67;;;0.93;;
21769;SDS011;11046;49.558;8.674;2024-02-23T05:13:09;5.40;;;1.10;;
21769;SDS011;11046;49.558;8.674;2024-02-23T05:16:10;2.13;;;0.90;;
21769;SDS011;11046;49.558;8.674;2024-02-23T05:19:10;3.77;;;1.07;;
21769;SDS011;11046;49.558;8.674;2024-02-23T05:22:11;3.40;;;0.90;;
21769;SDS011;11046;49.558;8.674;2024-02-23T05:25:12;3.20;;;0.93;;
21769;SDS011;11046;49.558;8.674;2024-02-23T05:28:12;2.70;;;0.90;;
21769;SDS011;11046;49.558;8.674;2024-02-23T05:31:13;9.30;;;1.37;;
21769;SDS011;11046;49.558;8.674;2024-02-23T05:34:14;5.33;;;1.00;;
21769;SDS011;11046;49.558;8.674;2024-02-23T05:37:14;2.93;;;1.23;;
21769;SDS011;11046;49.558;8.674;2024-02-23T05:40:15;3.23;;;1.20;;
21769;SDS011;11046;49.558;8.674;2024-02-23T05:43:16;6.50;;;1.10;;
21769;SDS011;11046;49.558;8.674;2024-02-23T05:46:16;3.40;;;0.97;;
21769;SDS011;11046;49.558;8.674;2024-02-23T05:49:18;4.93;;;1.37;;
21769;SDS011;11046;49.558;8.674;2024-02-23T05:52:18;2.40;;;1.03;;
21769;SDS011;11046;49.558;8.674;2024-02-23T05:55:19;5.37;;;0.93;;
21769;SDS011;11046;49.558;8.674;2024-02-23T05:58:19;4.10;;;1.10;;
21769;SDS011;11046;49.558;8.674;2024-02-23T06:04:37;13.37;;;1.40;;
21769;SDS011;11046;49.558;8.674;2024-02-23T06:07:40;3.50;;;0.80;;
21769;SDS011;11046;49.558;8.674;2024-02-23T06:10:41;4.13;;;1.50;;
21769;SDS011;11046;49.558;8.674;2024-02-23T06:13:43;4.50;;;1.20;;
21769;SDS011;11046;49.558;8.674;2024-02-23T06:16:44;4.73;;;0.83;;
21769;SDS011;11046;49.558;8.674;2024-02-23T06:19:44;5.17;;;1.03;;
21769;SDS011;11046;49.558;8.674;2024-02-23T06:22:45;3.00;;;1.07;;
21769;SDS011;11046;49.558;8.674;2024-02-23T06:25:45;5.23;;;1.10;;
21769;SDS011;11046;49.558;8.674;2024-02-23T06:28:46;5.10;;;1.00;;
21769;SDS011;11046;49.558;8.674;2024-02-23T06:31:48;5.03;;;0.97;;
21769;SDS011;11046;49.558;8.674;2024-02-23T06:34:49;4.57;;;1.50;;
21769;SDS011;11046;49.558;8.674;2024-02-23T06:37:50;4.40;;;1.23;;
21769;SDS011;11046;49.558;8.674;2024-02-23T06:40:51;6.00;;;1.20;;
21769;SDS011;11046;49.558;8.674;2024-02-23T06:43:52;8.20;;;1.73;;
21769;SDS011;11046;49.558;8.674;2024-02-23T06:46:53;9.43;;;1.67;;
21769;SDS011;11046;49.558;8.674;2024-02-23T06:49:53;5.27;;;1.20;;
21769;SDS011;11046;49.558;8.674;2024-02-23T06:52:54;3.63;;;1.50;;
21769;SDS011;11046;49.558;8.674;2024-02-23T06:55:55;6.07;;;1.20;;
21769;SDS011;11046;49.558;8.674;2024-02-23T06:58:55;6.13;;;1.43;;
21769;SDS011;11046;49.558;8.674;2024-02-23T07:01:56;15.47;;;2.67;;
21769;SDS011;11046;49.558;8.674;2024-02-23T07:04:57;9.23;;;2.37;;
21769;SDS011;11046;49.558;8.674;2024-02-23T07:07:58;9.50;;;3.73;;
21769;SDS011;11046;49.558;8.674;2024-02-23T07:10:59;6.80;;;2.60;;
21769;SDS011;11046;49.558;8.674;2024-02-23T07:14:00;5.00;;;1.87;;
21769;SDS011;11046;49.558;8.674;2024-02-23T07:17:00;10.90;;;1.80;;
21769;SDS011;11046;49.558;8.674;2024-02-23T07:20:03;3.57;;;1.23;;
21769;SDS011;11046;49.558;8.674;2024-02-23T07:23:05;7.93;;;2.27;;
21769;SDS011;11046;49.558;8.674;2024-02-23T07:26:07;9.00;;;1.37;;
21769;SDS011;11046;49.558;8.674;2024-02-23T07:29:08;4.53;;;1.20;;
21769;SDS011;11046;49.558;8.674;2024-02-23T07:32:09;5.37;;;0.93;;
21769;SDS011;11046;49.558;8.674;2024-02-23T07:35:10;5.57;;;1.53;;
21769;SDS011;11046;49.558;8.674;2024-02-23T07:38:11;5.00;;;1.33;;
21769;SDS011;11046;49.558;8.674;2024-02-23T07:41:11;8.33;;;1.80;;
21769;SDS011;11046;49.558;8.674;2024-02-23T07:44:13;5.13;;;1.03;;
21769;SDS011;11046;49.558;8.674;2024-02-23T07:47:14;7.23;;;1.57;;
21769;SDS011;11046;49.558;8.674;2024-02-23T07:50:15;5.60;;;0.90;;
21769;SDS011;11046;49.558;8.674;2024-02-23T07:53:16;3.13;;;1.30;;
21769;SDS011;11046;49.558;8.674;2024-02-23T07:56:16;10.90;;;1.97;;
21769;SDS011;11046;49.558;8.674;2024-02-23T07:59:17;8.93;;;1.90;;
21769;SDS011;11046;49.558;8.674;2024-02-23T08:02:18;4.00;;;1.40;;
21769;SDS011;11046;49.558;8.674;2024-02-23T08:05:18;6.73;;;1.60;;
21769;SDS011;11046;49.558;8.674;2024-02-23T08:08:19;3.07;;;1.10;;
21769;SDS011;11046;49.558;8.674;2024-02-23T08:11:19;5.07;;;1.03;;
21769;SDS011;11046;49.558;8.674;2024-02-23T08:14:20;4.60;;;1.20;;
21769;SDS011;11046;49.558;8.674;2024-02-23T08:17:21;3.67;;;1.47;;
21769;SDS011;11046;49.558;8.674;2024-02-23T08:20:21;5.60;;;2.10;;
21769;SDS011;11046;49.558;8.674;2024-02-23T08:23:23;6.30;;;2.07;;
21769;SDS011;11046;49.558;8.674;2024-02-23T08:26:24;6.47;;;1.27;;
21769;SDS011;11046;49.558;8.674;2024-02-23T08:29:25;7.10;;;1.70;;
21769;SDS011;11046;49.558;8.674;2024-02-23T08:32:27;12.30;;;1.67;;
21769;SDS011;11046;49.558;8.674;2024-02-23T08:35:27;7.83;;;1.47;;
21769;SDS011;11046;49.558;8.674;2024-02-23T08:38:28;8.00;;;1.87;;
21769;SDS011;11046;49.558;8.674;2024-02-23T08:41:28;6.57;;;1.63;;
21769;SDS011;11046;49.558;8.674;2024-02-23T08:44:29;5.57;;;1.53;;
21769;SDS011;11046;49.558;8.674;2024-02-23T08:47:30;4.63;;;1.20;;
21769;SDS011;11046;49.558;8.674;2024-02-23T08:50:33;8.03;;;1.30;;
21769;SDS011;11046;49.558;8.674;2024-02-23T08:53:34;6.67;;;1.23;;
21769;SDS011;11046;49.558;8.674;2024-02-23T08:56:38;7.37;;;1.07;;
21769;SDS011;11046;49.558;8.674;2024-02-23T08:59:42;4.77;;;2.30;;
21769;SDS011;11046;49.558;8.674;2024-02-23T09:02:43;4.10;;;1.00;;
21769;SDS011;11046;49.558;8.674;2024-02-23T09:05:44;4.93;;;1.20;;
21769;SDS011;11046;49.558;8.674;2024-02-23T09:08:47;6.57;;;1.60;;
21769;SDS011;11046;49.558;8.674;2024-02-23T09:11:48;6.20;;;1.30;;
21769;SDS011;11046;49.558;8.674;2024-02-23T09:14:49;5.17;;;1.17;;
21769;SDS011;11046;49.558;8.674;2024-02-23T09:17:50;7.07;;;1.70;;
21769;SDS011;11046;49.558;8.674;2024-02-23T09:20:51;6.60;;;1.60;;
21769;SDS011;11046;49.558;8.674;2024-02-23T09:23:51;5.97;;;1.20;;
21769;SDS011;11046;49.558;8.674;2024-02-23T09:26:52;5.43;;;1.40;;
21769;SDS011;11046;49.558;8.674;2024-02-23T09:29:53;8.00;;;1.40;;
21769;SDS011;11046;49.558;8.674;2024-02-23T09:32:53;4.87;;;1.00;;
21769;SDS011;11046;49.558;8.674;2024-02-23T09:35:54;7.03;;;1.30;;
21769;SDS011;11046;49.558;8.674;2024-02-23T09:38:55;5.57;;;1.10;;
21769;SDS011;11046;49.558;8.674;2024-02-23T09:41:56;4.33;;;0.97;;
21769;SDS011;11046;49.558;8.674;2024-02-23T09:44:57;5.63;;;1.47;;
21769;SDS011;11046;49.558;8.674;2024-02-23T09:47:59;5.13;;;1.50;;
21769;SDS011;11046;49.558;8.674;2024-02-23T09:51:03;5.53;;;1.40;;
21769;SDS011;11046;49.558;8.674;2024-02-23T09:54:05;4.43;;;0.80;;
21769;SDS011;11046;49.558;8.674;2024-02-23T09:57:07;8.17;;;1.20;;
21769;SDS011;11046;49.558;8.674;2024-02-23T10:00:09;3.73;;;1.10;;
21769;SDS011;11046;49.558;8.674;2024-02-23T10:03:13;6.23;;;1.33;;
21769;SDS011;11046;49.558;8.674;2024-02-23T10:06:14;2.60;;;0.90;;
21769;SDS011;11046;49.558;8.674;2024-02-23T10:09:14;7.22;;;1.35;;
21769;SDS011;11046;49.558;8.674;2024-02-23T10:12:15;5.33;;;0.77;;
21769;SDS011;11046;49.558;8.674;2024-02-23T10:15:16;6.80;;;1.20;;
21769;SDS011;11046;49.558;8.674;2024-02-23T10:18:17;6.97;;;1.20;;
21769;SDS011;11046;49.558;8.674;2024-02-23T10:21:18;5.73;;;1.23;;
21769;SDS011;11046;49.558;8.674;2024-02-23T10:24:18;3.07;;;0.93;;
21769;SDS011;11046;49.558;8.674;2024-02-23T10:27:20;3.78;;;1.05;;
21769;SDS011;11046;49.558;8.674;2024-02-23T10:30:22;4.67;;;1.00;;
21769;SDS011;11046;49.558;8.674;2024-02-23T10:33:23;16.07;;;2.67;;
21769;SDS011;11046;49.558;8.674;2024-02-23T10:36:23;7.13;;;1.30;;
21769;SDS011;11046;49.558;8.674;2024-02-23T10:39:27;6.07;;;1.13;;
21769;SDS011;11046;49.558;8.674;2024-02-23T10:42:30;8.23;;;1.30;;
21769;SDS011;11046;49.558;8.674;2024-02-23T10:45:35;4.13;;;1.00;;
21769;SDS011;11046;49.558;8.674;2024-02-23T10:48:36;5.47;;;1.30;;
21769;SDS011;11046;49.558;8.674;2024-02-23T10:51:38;6.53;;;1.00;;
21769;SDS011;11046;49.558;8.674;2024-02-23T10:54:40;4.90;;;0.80;;
21769;SDS011;11046;49.558;8.674;2024-02-23T10:57:42;3.20;;;1.20;;
21769;SDS011;11046;49.558;8.674;2024-02-23T11:00:44;4.70;;;1.00;;
21769;SDS011;11046;49.558;8.674;2024-02-23T11:03:46;6.40;;;1.20;;
21769;SDS011;11046;49.558;8.674;2024-02-23T11:06:50;3.28;;;0.80;;
21769;SDS011;11046;49.558;8.674;2024-02-23T11:09:52;5.82;;;1.35;;
21769;SDS011;11046;49.558;8.674;2024-02-23T11:13:00;4.20;;;0.85;;
21769;SDS011;11046;49.558;8.674;2024-02-23T11:16:01;3.63;;;1.00;;
21769;SDS011;11046;49.558;8.674;2024-02-23T11:19:03;6.72;;;1.30;;
21769;SDS011;11046;49.558;8.674;2024-02-23T11:22:09;4.43;;;1.15;;
21769;SDS011;11046;49.558;8.674;2024-02-23T11:25:10;2.33;;;0.98;;
21769;SDS011;11046;49.558;8.674;2024-02-23T11:28:21;5.22;;;1.45;;
21769;SDS011;11046;49.558;8.674;2024-02-23T11:31:23;4.38;;;1.13;;
21769;SDS011;11046;49.558;8.674;2024-02-23T11:34:26;6.75;;;1.20;;
21769;SDS011;11046;49.558;8.674;2024-02-23T11:37:28;5.07;;;1.08;;
21769;SDS011;11046;49.558;8.674;2024-02-23T11:40:30;5.80;;;1.00;;
21769;SDS011;11046;49.558;8.674;2024-02-23T11:43:32;3.78;;;0.70;;
21769;SDS011;11046;49.558;8.674;2024-02-23T11:46:35;8.02;;;1.50;;
21769;SDS011;11046;49.558;8.674;2024-02-23T11:49:35;7.57;;;1.75;;
21769;SDS011;11046;49.558;8.674;2024-02-23T11:52:37;6.85;;;1.88;;
21769;SDS011;11046;49.558;8.674;2024-02-23T11:55:38;4.80;;;1.17;;
21769;SDS011;11046;49.558;8.674;2024-02-23T11:58:39;4.20;;;1.10;;
21769;SDS011;11046;49.558;8.674;2024-02-23T12:01:40;4.28;;;1.15;;
21769;SDS011;11046;49.558;8.674;2024-02-23T12:04:41;2.72;;;1.10;;
21769;SDS011;11046;49.558;8.674;2024-02-23T12:07:42;8.77;;;2.30;;
21769;SDS011;11046;49.558;8.674;2024-02-23T12:10:43;4.53;;;1.30;;
21769;SDS011;11046;49.558;8.674;2024-02-23T12:13:44;7.65;;;1.65;;
21769;SDS011;11046;49.558;8.674;2024-02-23T12:16:46;9.32;;;2.35;;
21769;SDS011;11046;49.558;8.674;2024-02-23T12:19:47;9.40;;;2.85;;
21769;SDS011;11046;49.558;8.674;2024-02-23T12:22:49;13.65;;;1.30;;
21769;SDS011;11046;49.558;8.674;2024-02-23T12:25:56;3.30;;;0.90;;
21769;SDS011;11046;49.558;8.674;2024-02-23T12:29:00;5.28;;;1.10;;
21769;SDS011;11046;49.558;8.674;2024-02-23T12:32:06;5.80;;;0.90;;
21769;SDS011;11046;49.558;8.674;2024-02-23T12:35:07;7.10;;;1.30;;
21769;SDS011;11046;49.558;8.674;2024-02-23T12:38:10;5.03;;;1.20;;
21769;SDS011;11046;49.558;8.674;2024-02-23T12:41:10;4.93;;;1.20;;
21769;SDS011;11046;49.558;8.674;2024-02-23T12:44:11;7.38;;;1.70;;
21769;SDS011;11046;49.558;8.674;2024-02-23T12:47:12;4.22;;;1.02;;
21769;SDS011;11046;49.558;8.674;2024-02-23T12:50:12;7.22;;;1.38;;
21769;SDS011;11046;49.558;8.674;2024-02-23T12:53:29;15.75;;;2.53;;
21769;SDS011;11046;49.558;8.674;2024-02-23T12:56:39;8.10;;;1.90;;
21769;SDS011;11046;49.558;8.674;2024-02-23T12:59:40;5.37;;;1.23;;
21769;SDS011;11046;49.558;8.674;2024-02-23T13:02:40;4.07;;;1.87;;
21769;SDS011;11046;49.558;8.674;2024-02-23T13:05:41;4.00;;;0.87;;
21769;SDS011;11046;49.558;8.674;2024-02-23T13:08:42;2.53;;;0.93;;
21769;SDS011;11046;49.558;8.674;2024-02-23T13:11:43;5.73;;;1.20;;
21769;SDS011;11046;49.558;8.674;2024-02-23T13:14:45;2.40;;;0.90;;
21769;SDS011;11046;49.558;8.674;2024-02-23T13:17:46;4.87;;;1.30;;
21769;SDS011;11046;49.558;8.674;2024-02-23T13:20:46;6.53;;;1.30;;
21769;SDS011;11046;49.558;8.674;2024-02-23T13:23:47;4.90;;;0.83;;
21769;SDS011;11046;49.558;8.674;2024-02-23T13:26:49;5.00;;;1.07;;
21769;SDS011;11046;49.558;8.674;2024-02-23T13:29:49;6.40;;;1.08;;
21769;SDS011;11046;49.558;8.674;2024-02-23T13:32:50;5.50;;;1.60;;
21769;SDS011;11046;49.558;8.674;2024-02-23T13:35:51;7.28;;;2.35;;
21769;SDS011;11046;49.558;8.674;2024-02-23T13:38:52;4.93;;;1.70;;
21769;SDS011;11046;49.558;8.674;2024-02-23T13:41:52;2.97;;;1.13;;
21769;SDS011;11046;49.558;8.674;2024-02-23T13:44:53;6.20;;;1.33;;
21769;SDS011;11046;49.558;8.674;2024-02-23T13:47:58;7.75;;;1.40;;
21769;SDS011;11046;49.558;8.674;2024-02-23T13:51:00;5.73;;;1.10;;
21769;SDS011;11046;49.558;8.674;2024-02-23T13:54:03;5.30;;;1.27;;
21769;SDS011;11046;49.558;8.674;2024-02-23T13:57:04;2.23;;;0.90;;
21769;SDS011;11046;49.558;8.674;2024-02-23T14:00:05;5.22;;;1.40;;
21769;SDS011;11046;49.558;8.674;2024-02-23T14:03:15;3.47;;;1.20;;
21769;SDS011;11046;49.558;8.674;2024-02-23T14:06:21;4.53;;;1.33;;
21769;SDS011;11046;49.558;8.674;2024-02-23T14:09:22;4.93;;;1.43;;
21769;SDS011;11046;49.558;8.674;2024-02-23T14:12:23;9.57;;;2.03;;
21769;SDS011;11046;49.558;8.674;2024-02-23T14:15:24;4.93;;;1.30;;
21769;SDS011;11046;49.558;8.674;2024-02-23T14:18:25;5.50;;;1.37;;
21769;SDS011;11046;49.558;8.674;2024-02-23T14:21:25;3.53;;;1.10;;
21769;SDS011;11046;49.558;8.674;2024-02-23T14:24:26;4.30;;;1.27;;
21769;SDS011;11046;49.558;8.674;2024-02-23T14:27:27;6.07;;;1.20;;
21769;SDS011;11046;49.558;8.674;2024-02-23T14:30:28;5.70;;;1.60;;
21769;SDS011;11046;49.558;8.674;2024-02-23T14:33:29;4.60;;;1.80;;
21769;SDS011;11046;49.558;8.674;2024-02-23T14:36:30;8.67;;;1.53;;
21769;SDS011;11046;49.558;8.674;2024-02-23T14:39:34;4.33;;;1.10;;
21769;SDS011;11046;49.558;8.674;2024-02-23T14:42:34;6.80;;;1.30;;
21769;SDS011;11046;49.558;8.674;2024-02-23T14:45:35;8.50;;;1.33;;
21769;SDS011;11046;49.558;8.674;2024-02-23T14:48:36;6.27;;;1.10;;
21769;SDS011;11046;49.558;8.674;2024-02-23T14:51:36;6.57;;;1.30;;
21769;SDS011;11046;49.558;8.674;2024-02-23T14:54:37;3.90;;;1.40;;
21769;SDS011;11046;49.558;8.674;2024-02-23T14:57:38;5.77;;;1.67;;
21769;SDS011;11046;49.558;8.674;2024-02-23T15:00:38;8.10;;;2.40;;
21769;SDS011;11046;49.558;8.674;2024-02-23T15:03:39;6.43;;;1.60;;
21769;SDS011;11046;49.558;8.674;2024-02-23T15:06:40;8.80;;;1.63;;
21769;SDS011;11046;49.558;8.674;2024-02-23T15:09:40;6.60;;;1.83;;
21769;SDS011;11046;49.558;8.674;2024-02-23T15:12:42;6.03;;;2.23;;
21769;SDS011;11046;49.558;8.674;2024-02-23T15:15:43;6.07;;;2.27;;
21769;SDS011;11046;49.558;8.674;2024-02-23T15:18:44;7.60;;;2.13;;
21769;SDS011;11046;49.558;8.674;2024-02-23T15:21:44;3.40;;;1.50;;
21769;SDS011;11046;49.558;8.674;2024-02-23T15:24:45;4.90;;;1.60;;
21769;SDS011;11046;49.558;8.674;2024-02-23T15:27:49;12.40;;;1.57;;
21769;SDS011;11046;49.558;8.674;2024-02-23T15:30:52;8.63;;;1.53;;
21769;SDS011;11046;49.558;8.674;2024-02-23T15:33:53;6.57;;;2.07;;
21769;SDS011;11046;49.558;8.674;2024-02-23T15:36:56;7.63;;;2.17;;
21769;SDS011;11046;49.558;8.674;2024-02-23T15:39:57;8.33;;;1.80;;
21769;SDS011;11046;49.558;8.674;2024-02-23T15:42:57;9.30;;;2.23;;
21769;SDS011;11046;49.558;8.674;2024-02-23T15:45:58;4.63;;;1.77;;
21769;SDS011;11046;49.558;8.674;2024-02-23T15:48:58;4.43;;;1.40;;
21769;SDS011;11046;49.558;8.674;2024-02-23T15:51:59;4.93;;;1.13;;
21769;SDS011;11046;49.558;8.674;2024-02-23T15:55:00;5.13;;;1.40;;
21769;SDS011;11046;49.558;8.674;2024-02-23T15:58:01;3.27;;;1.20;;
21769;SDS011;11046;49.558;8.674;2024-02-23T16:01:02;5.37;;;1.43;;
21769;SDS011;11046;49.558;8.674;2024-02-23T16:04:06;9.20;;;1.70;;
21769;SDS011;11046;49.558;8.674;2024-02-23T16:07:09;4.17;;;1.33;;
21769;SDS011;11046;49.558;8.674;2024-02-23T16:10:11;6.50;;;1.80;;
21769;SDS011;11046;49.558;8.674;2024-02-23T16:13:13;5.83;;;1.70;;
21769;SDS011;11046;49.558;8.674;2024-02-23T16:16:13;8.50;;;2.33;;
21769;SDS011;11046;49.558;8.674;2024-02-23T16:19:14;6.57;;;1.30;;
21769;SDS011;11046;49.558;8.674;2024-02-23T16:22:18;2.60;;;1.20;;
21769;SDS011;11046;49.558;8.674;2024-02-23T16:25:19;6.43;;;1.90;;
21769;SDS011;11046;49.558;8.674;2024-02-23T16:28:20;4.03;;;1.37;;
21769;SDS011;11046;49.558;8.674;2024-02-23T16:31:21;5.93;;;2.00;;
21769;SDS011;11046;49.558;8.674;2024-02-23T16:34:21;10.73;;;2.30;;
21769;SDS011;11046;49.558;8.674;2024-02-23T16:37:22;6.77;;;1.80;;
21769;SDS011;11046;49.558;8.674;2024-02-23T16:40:24;4.50;;;1.30;;
21769;SDS011;11046;49.558;8.674;2024-02-23T16:43:28;3.13;;;1.20;;
21769;SDS011;11046;49.558;8.674;2024-02-23T16:46:28;6.13;;;1.17;;
21769;SDS011;11046;49.558;8.674;2024-02-23T16:49:29;4.80;;;1.40;;
21769;SDS011;11046;49.558;8.674;2024-02-23T16:52:30;3.30;;;1.03;;
21769;SDS011;11046;49.558;8.674;2024-02-23T16:55:31;5.07;;;1.60;;
21769;SDS011;11046;49.558;8.674;2024-02-23T16:58:32;6.67;;;1.30;;
21769;SDS011;11046;49.558;8.674;2024-02-23T17:01:35;5.70;;;1.40;;
21769;SDS011;11046;49.558;8.674;2024-02-23T17:04:36;6.37;;;1.20;;
21769;SDS011;11046;49.558;8.674;2024-02-23T17:07:37;7.87;;;1.50;;
21769;SDS011;11046;49.558;8.674;2024-02-23T17:10:37;9.77;;;1.80;;
21769;SDS011;11046;49.558;8.674;2024-02-23T17:13:38;6.30;;;1.67;;
21769;SDS011;11046;49.558;8.674;2024-02-23T17:16:39;5.97;;;1.63;;
21769;SDS011;11046;49.558;8.674;2024-02-23T17:19:39;7.83;;;1.90;;
21769;SDS011;11046;49.558;8.674;2024-02-23T17:22:41;3.53;;;1.20;;
21769;SDS011;11046;49.558;8.674;2024-02-23T17:25:42;5.83;;;1.50;;
21769;SDS011;11046;49.558;8.674;2024-02-23T17:28:46;5.60;;;2.33;;
21769;SDS011;11046;49.558;8.674;2024-02-23T17:31:46;4.33;;;1.47;;
21769;SDS011;11046;49.558;8.674;2024-02-23T17:34:47;3.97;;;1.90;;
21769;SDS011;11046;49.558;8.674;2024-02-23T17:37:48;9.07;;;1.63;;
21769;SDS011;11046;49.558;8.674;2024-02-23T17:40:49;11.27;;;2.60;;
21769;SDS011;11046;49.558;8.674;2024-02-23T17:43:52;6.40;;;2.40;;
21769;SDS011;11046;49.558;8.674;2024-02-23T17:46:56;4.77;;;2.17;;
21769;SDS011;11046;49.558;8.674;2024-02-23T17:49:57;9.90;;;1.93;;
21769;SDS011;11046;49.558;8.674;2024-02-23T17:53:03;6.70;;;1.90;;
21769;SDS011;11046;49.558;8.674;2024-02-23T17:56:04;5.77;;;1.40;;
21769;SDS011;11046;49.558;8.674;2024-02-23T17:59:06;7.47;;;2.00;;
21769;SDS011;11046;49.558;8.674;2024-02-23T18:02:07;9.33;;;2.00;;
21769;SDS011;11046;49.558;8.674;2024-02-23T18:05:08;5.00;;;1.63;;
21769;SDS011;11046;49.558;8.674;2024-02-23T18:08:08;8.13;;;2.10;;
21769;SDS011;11046;49.558;8.674;2024-02-23T18:11:09;4.17;;;1.80;;
21769;SDS011;11046;49.558;8.674;2024-02-23T18:14:10;7.87;;;1.90;;
21769;SDS011;11046;49.558;8.674;2024-02-23T18:17:12;5.83;;;1.97;;
21769;SDS011;11046;49.558;8.674;2024-02-23T18:20:13;7.07;;;1.53;;